sensor_id;sensor_type;location;lat;lon;timestamp;pressure;altitude;pressure_sealevel;temperature;humidity
42289;BME280;30230;47.520;19.016;2023-05-02T00:01:32;99165.50;;;12.27;56.69
42289;BME280;30230;47.520;19.016;2023-05-02T00:03:32;99175.47;;;12.33;57.17
42289;BME280;30230;47.520;19.016;2023-05-02T00:05:33;99163.22;;;12.30;57.26
42289;BME280;30230;47.520;19.016;2023-05-02T00:07:35;99157.94;;;12.35;56.66
42289;BME280;30230;47.520;19.016;2023-05-02T00:09:35;99165.16;;;12.48;56.70
42289;BME280;30230;47.520;19.016;2023-05-02T00:11:35;99161.00;;;12.45;56.30
42289;BME280;30230;47.520;19.016;2023-05-02T00:13:36;99168.94;;;12.47;55.16
42289;BME280;30230;47.520;19.016;2023-05-02T00:15:36;99168.22;;;12.58;55.41
42289;BME280;30230;47.520;19.016;2023-05-02T00:17:39;99156.41;;;12.52;54.42
42289;BME280;30230;47.520;19.016;2023-05-02T00:19:40;99163.41;;;12.60;56.84
42289;BME280;30230;47.520;19.016;2023-05-02T00:21:41;99159.22;;;12.64;56.74
42289;BME280;30230;47.520;19.016;2023-05-02T00:23:41;99162.97;;;12.63;53.42
42289;BME280;30230;47.520;19.016;2023-05-02T00:25:45;99162.88;;;12.76;53.73
42289;BME280;30230;47.520;19.016;2023-05-02T00:27:45;99149.31;;;12.76;52.97
42289;BME280;30230;47.520;19.016;2023-05-02T00:29:46;99156.84;;;12.74;55.24
42289;BME280;30230;47.520;19.016;2023-05-02T00:31:47;99155.38;;;12.78;54.07
42289;BME280;30230;47.520;19.016;2023-05-02T00:33:47;99148.50;;;12.76;53.78
42289;BME280;30230;47.520;19.016;2023-05-02T00:35:48;99152.81;;;12.84;54.61
42289;BME280;30230;47.520;19.016;2023-05-02T00:37:48;99153.41;;;12.86;55.55
42289;BME280;30230;47.520;19.016;2023-05-02T00:39:48;99159.91;;;12.85;56.22
42289;BME280;30230;47.520;19.016;2023-05-02T00:41:55;99151.69;;;12.91;55.67
42289;BME280;30230;47.520;19.016;2023-05-02T00:43:56;99153.88;;;12.83;54.75
42289;BME280;30230;47.520;19.016;2023-05-02T00:45:57;99160.72;;;12.85;54.46
42289;BME280;30230;47.520;19.016;2023-05-02T00:47:58;99147.50;;;12.70;51.99
42289;BME280;30230;47.520;19.016;2023-05-02T00:49:58;99160.13;;;12.83;53.93
42289;BME280;30230;47.520;19.016;2023-05-02T00:52:00;99163.22;;;12.87;54.35
42289;BME280;30230;47.520;19.016;2023-05-02T00:54:01;99149.06;;;12.85;54.38
42289;BME280;30230;47.520;19.016;2023-05-02T00:56:01;99147.47;;;12.77;55.25
42289;BME280;30230;47.520;19.016;2023-05-02T00:58:04;99156.59;;;12.83;56.96
42289;BME280;30230;47.520;19.016;2023-05-02T01:00:06;99161.38;;;12.81;55.25
42289;BME280;30230;47.520;19.016;2023-05-02T01:05:10;99166.25;;;12.72;53.44
42289;BME280;30230;47.520;19.016;2023-05-02T01:11:59;99156.50;;;12.64;55.97
42289;BME280;30230;47.520;19.016;2023-05-02T01:14:04;99158.00;;;12.60;55.36
42289;BME280;30230;47.520;19.016;2023-05-02T01:16:05;99163.88;;;12.57;56.82
42289;BME280;30230;47.520;19.016;2023-05-02T01:18:08;99160.41;;;12.43;58.19
42289;BME280;30230;47.520;19.016;2023-05-02T01:20:16;99175.41;;;12.46;56.82
42289;BME280;30230;47.520;19.016;2023-05-02T01:22:20;99166.06;;;12.42;56.71
42289;BME280;30230;47.520;19.016;2023-05-02T01:24:25;99165.25;;;12.35;55.95
42289;BME280;30230;47.520;19.016;2023-05-02T01:26:31;99169.00;;;12.34;55.84
42289;BME280;30230;47.520;19.016;2023-05-02T01:28:56;99162.34;;;12.30;57.00
42289;BME280;30230;47.520;19.016;2023-05-02T01:30:58;99169.88;;;12.28;57.19
42289;BME280;30230;47.520;19.016;2023-05-02T01:33:01;99165.34;;;12.21;57.24
42289;BME280;30230;47.520;19.016;2023-05-02T01:35:02;99158.25;;;12.20;57.38
42289;BME280;30230;47.520;19.016;2023-05-02T01:37:04;99156.41;;;12.14;58.77
42289;BME280;30230;47.520;19.016;2023-05-02T01:39:06;99157.84;;;12.17;55.72
42289;BME280;30230;47.520;19.016;2023-05-02T01:41:07;99162.25;;;12.11;56.79
42289;BME280;30230;47.520;19.016;2023-05-02T01:43:08;99152.13;;;12.00;57.61
42289;BME280;30230;47.520;19.016;2023-05-02T01:45:10;99155.84;;;11.99;57.74
42289;BME280;30230;47.520;19.016;2023-05-02T01:47:12;99145.88;;;11.93;57.38
42289;BME280;30230;47.520;19.016;2023-05-02T01:49:13;99155.28;;;11.90;59.86
42289;BME280;30230;47.520;19.016;2023-05-02T01:51:17;99149.47;;;11.87;58.48
42289;BME280;30230;47.520;19.016;2023-05-02T01:53:19;99146.97;;;11.79;57.54
42289;BME280;30230;47.520;19.016;2023-05-02T01:55:22;99155.69;;;11.81;58.21
42289;BME280;30230;47.520;19.016;2023-05-02T01:57:24;99160.50;;;11.79;57.38
42289;BME280;30230;47.520;19.016;2023-05-02T01:59:26;99158.63;;;11.72;61.15
42289;BME280;30230;47.520;19.016;2023-05-02T02:01:28;99146.41;;;11.63;59.11
42289;BME280;30230;47.520;19.016;2023-05-02T02:03:30;99152.44;;;11.65;59.28
42289;BME280;30230;47.520;19.016;2023-05-02T02:05:32;99157.41;;;11.62;58.38
42289;BME280;30230;47.520;19.016;2023-05-02T02:07:34;99149.94;;;11.64;59.28
42289;BME280;30230;47.520;19.016;2023-05-02T02:09:35;99133.72;;;11.57;58.43
42289;BME280;30230;47.520;19.016;2023-05-02T02:11:59;99141.81;;;11.64;60.48
42289;BME280;30230;47.520;19.016;2023-05-02T02:14:06;99145.16;;;11.59;60.18
42289;BME280;30230;47.520;19.016;2023-05-02T02:16:11;99144.34;;;11.59;62.76
42289;BME280;30230;47.520;19.016;2023-05-02T02:18:19;99140.63;;;11.53;61.05
42289;BME280;30230;47.520;19.016;2023-05-02T02:20:20;99129.78;;;11.46;63.59
42289;BME280;30230;47.520;19.016;2023-05-02T02:22:23;99127.72;;;11.42;60.83
42289;BME280;30230;47.520;19.016;2023-05-02T02:24:26;99139.19;;;11.44;62.27
42289;BME280;30230;47.520;19.016;2023-05-02T02:26:27;99141.88;;;11.44;60.73
42289;BME280;30230;47.520;19.016;2023-05-02T02:28:27;99138.53;;;11.42;59.57
42289;BME280;30230;47.520;19.016;2023-05-02T02:30:28;99134.81;;;11.43;59.34
42289;BME280;30230;47.520;19.016;2023-05-02T02:32:28;99139.19;;;11.44;60.17
42289;BME280;30230;47.520;19.016;2023-05-02T02:34:29;99136.88;;;11.41;60.98
42289;BME280;30230;47.520;19.016;2023-05-02T02:36:34;99130.88;;;11.39;63.89
42289;BME280;30230;47.520;19.016;2023-05-02T02:38:47;99136.09;;;11.34;59.79
42289;BME280;30230;47.520;19.016;2023-05-02T02:40:55;99137.53;;;11.30;60.75
42289;BME280;30230;47.520;19.016;2023-05-02T02:43:10;99133.59;;;11.26;59.82
42289;BME280;30230;47.520;19.016;2023-05-02T02:49:48;99140.28;;;11.23;62.02
42289;BME280;30230;47.520;19.016;2023-05-02T02:51:53;99144.84;;;11.16;63.39
42289;BME280;30230;47.520;19.016;2023-05-02T02:54:00;99141.94;;;11.11;62.43
42289;BME280;30230;47.520;19.016;2023-05-02T02:56:13;99134.88;;;11.16;61.79
42289;BME280;30230;47.520;19.016;2023-05-02T02:58:17;99135.28;;;11.13;62.09
42289;BME280;30230;47.520;19.016;2023-05-02T03:00:21;99132.81;;;11.12;62.20
42289;BME280;30230;47.520;19.016;2023-05-02T03:02:27;99120.56;;;10.96;64.13
42289;BME280;30230;47.520;19.016;2023-05-02T03:04:31;99133.63;;;10.99;63.58
42289;BME280;30230;47.520;19.016;2023-05-02T03:06:33;99145.91;;;11.02;63.44
42289;BME280;30230;47.520;19.016;2023-05-02T03:08:40;99136.78;;;10.96;64.39
42289;BME280;30230;47.520;19.016;2023-05-02T03:10:41;99140.31;;;10.97;64.08
42289;BME280;30230;47.520;19.016;2023-05-02T03:12:41;99137.19;;;10.93;65.31
42289;BME280;30230;47.520;19.016;2023-05-02T03:14:42;99139.69;;;10.88;64.20
42289;BME280;30230;47.520;19.016;2023-05-02T03:16:43;99134.28;;;10.81;64.34
42289;BME280;30230;47.520;19.016;2023-05-02T03:18:43;99145.50;;;10.85;64.70
42289;BME280;30230;47.520;19.016;2023-05-02T03:20:44;99137.38;;;10.85;65.23
42289;BME280;30230;47.520;19.016;2023-05-02T03:22:44;99147.78;;;10.88;64.05
42289;BME280;30230;47.520;19.016;2023-05-02T03:24:45;99146.75;;;10.82;65.69
42289;BME280;30230;47.520;19.016;2023-05-02T03:26:45;99150.47;;;10.75;65.14
42289;BME280;30230;47.520;19.016;2023-05-02T03:28:46;99141.56;;;10.67;66.10
42289;BME280;30230;47.520;19.016;2023-05-02T03:30:47;99138.84;;;10.61;66.11
42289;BME280;30230;47.520;19.016;2023-05-02T03:32:47;99145.28;;;10.66;65.36
42289;BME280;30230;47.520;19.016;2023-05-02T03:34:48;99150.25;;;10.69;67.22
42289;BME280;30230;47.520;19.016;2023-05-02T03:36:48;99150.69;;;10.73;65.94
42289;BME280;30230;47.520;19.016;2023-05-02T03:38:49;99151.75;;;10.65;66.99
42289;BME280;30230;47.520;19.016;2023-05-02T03:40:50;99158.38;;;10.63;68.79
42289;BME280;30230;47.520;19.016;2023-05-02T03:42:50;99144.22;;;10.54;67.41
42289;BME280;30230;47.520;19.016;2023-05-02T03:44:51;99148.41;;;10.63;66.81
42289;BME280;30230;47.520;19.016;2023-05-02T03:46:52;99154.41;;;10.59;66.50
42289;BME280;30230;47.520;19.016;2023-05-02T03:48:53;99155.47;;;10.64;66.14
42289;BME280;30230;47.520;19.016;2023-05-02T03:50:53;99157.16;;;10.65;67.82
42289;BME280;30230;47.520;19.016;2023-05-02T03:52:54;99153.41;;;10.66;69.11
42289;BME280;30230;47.520;19.016;2023-05-02T03:54:55;99160.66;;;10.73;66.62
42289;BME280;30230;47.520;19.016;2023-05-02T03:56:56;99157.56;;;10.76;67.71
42289;BME280;30230;47.520;19.016;2023-05-02T03:58:57;99146.94;;;10.67;67.43
42289;BME280;30230;47.520;19.016;2023-05-02T04:00:57;99151.53;;;10.74;69.01
42289;BME280;30230;47.520;19.016;2023-05-02T04:03:00;99156.94;;;10.80;69.38
42289;BME280;30230;47.520;19.016;2023-05-02T04:05:00;99162.13;;;10.82;68.89
42289;BME280;30230;47.520;19.016;2023-05-02T04:07:01;99153.19;;;10.75;68.73
42289;BME280;30230;47.520;19.016;2023-05-02T04:09:01;99173.16;;;10.80;68.11
42289;BME280;30230;47.520;19.016;2023-05-02T04:11:01;99164.63;;;10.83;67.13
42289;BME280;30230;47.520;19.016;2023-05-02T04:13:02;99167.94;;;10.85;66.93
42289;BME280;30230;47.520;19.016;2023-05-02T04:15:03;99161.50;;;10.93;67.29
42289;BME280;30230;47.520;19.016;2023-05-02T04:17:04;99167.34;;;10.97;67.17
42289;BME280;30230;47.520;19.016;2023-05-02T04:19:05;99156.09;;;10.93;67.59
42289;BME280;30230;47.520;19.016;2023-05-02T04:21:08;99163.81;;;10.96;67.04
42289;BME280;30230;47.520;19.016;2023-05-02T04:23:09;99162.75;;;11.04;67.48
42289;BME280;30230;47.520;19.016;2023-05-02T04:25:10;99165.03;;;11.13;68.42
42289;BME280;30230;47.520;19.016;2023-05-02T04:27:10;99171.47;;;11.12;68.36
42289;BME280;30230;47.520;19.016;2023-05-02T04:29:10;99178.50;;;11.27;65.88
42289;BME280;30230;47.520;19.016;2023-05-02T04:31:11;99173.53;;;11.24;65.32
42289;BME280;30230;47.520;19.016;2023-05-02T04:33:11;99186.00;;;11.38;64.13
42289;BME280;30230;47.520;19.016;2023-05-02T04:35:12;99181.81;;;11.42;68.09
42289;BME280;30230;47.520;19.016;2023-05-02T04:37:14;99178.50;;;11.40;68.63
42289;BME280;30230;47.520;19.016;2023-05-02T04:39:14;99187.44;;;11.40;67.88
42289;BME280;30230;47.520;19.016;2023-05-02T04:41:15;99190.13;;;11.47;68.77
42289;BME280;30230;47.520;19.016;2023-05-02T04:43:16;99185.97;;;11.51;68.81
42289;BME280;30230;47.520;19.016;2023-05-02T04:45:16;99192.22;;;11.58;68.27
42289;BME280;30230;47.520;19.016;2023-05-02T04:47:17;99185.31;;;11.62;67.06
42289;BME280;30230;47.520;19.016;2023-05-02T04:49:17;99193.41;;;11.76;66.74
42289;BME280;30230;47.520;19.016;2023-05-02T04:51:18;99190.50;;;11.84;67.29
42289;BME280;30230;47.520;19.016;2023-05-02T04:53:20;99186.28;;;11.88;67.82
42289;BME280;30230;47.520;19.016;2023-05-02T04:55:21;99188.16;;;11.94;67.97
42289;BME280;30230;47.520;19.016;2023-05-02T04:57:22;99184.19;;;11.96;67.58
42289;BME280;30230;47.520;19.016;2023-05-02T04:59:22;99191.66;;;12.01;67.81
42289;BME280;30230;47.520;19.016;2023-05-02T05:01:23;99203.50;;;12.07;67.81
42289;BME280;30230;47.520;19.016;2023-05-02T05:03:23;99195.34;;;12.13;67.58
42289;BME280;30230;47.520;19.016;2023-05-02T05:05:24;99192.47;;;12.15;68.33
42289;BME280;30230;47.520;19.016;2023-05-02T05:07:25;99198.00;;;12.27;67.58
42289;BME280;30230;47.520;19.016;2023-05-02T05:09:25;99194.44;;;12.33;68.11
42289;BME280;30230;47.520;19.016;2023-05-02T05:11:25;99191.91;;;12.38;69.96
42289;BME280;30230;47.520;19.016;2023-05-02T05:13:26;99192.91;;;12.43;69.92
42289;BME280;30230;47.520;19.016;2023-05-02T05:15:27;99201.44;;;12.47;68.07
42289;BME280;30230;47.520;19.016;2023-05-02T05:17:27;99194.56;;;12.51;68.42
42289;BME280;30230;47.520;19.016;2023-05-02T05:19:28;99200.16;;;12.56;67.79
42289;BME280;30230;47.520;19.016;2023-05-02T05:21:28;99200.09;;;12.63;66.53
42289;BME280;30230;47.520;19.016;2023-05-02T05:23:29;99201.50;;;12.72;66.30
42289;BME280;30230;47.520;19.016;2023-05-02T05:25:29;99194.53;;;12.83;65.22
42289;BME280;30230;47.520;19.016;2023-05-02T05:27:30;99194.41;;;12.96;64.85
42289;BME280;30230;47.520;19.016;2023-05-02T05:29:30;99210.69;;;12.96;64.55
42289;BME280;30230;47.520;19.016;2023-05-02T05:31:32;99203.94;;;13.05;64.56
42289;BME280;30230;47.520;19.016;2023-05-02T05:33:33;99208.06;;;13.14;65.92
42289;BME280;30230;47.520;19.016;2023-05-02T05:35:33;99211.56;;;13.21;65.48
42289;BME280;30230;47.520;19.016;2023-05-02T05:37:34;99215.06;;;13.28;64.39
42289;BME280;30230;47.520;19.016;2023-05-02T05:39:36;99217.94;;;13.34;63.96
42289;BME280;30230;47.520;19.016;2023-05-02T05:41:37;99221.41;;;13.41;64.32
42289;BME280;30230;47.520;19.016;2023-05-02T05:43:38;99212.81;;;13.44;63.67
42289;BME280;30230;47.520;19.016;2023-05-02T05:45:38;99220.81;;;13.57;63.44
42289;BME280;30230;47.520;19.016;2023-05-02T05:47:38;99225.19;;;13.58;63.79
42289;BME280;30230;47.520;19.016;2023-05-02T05:49:39;99224.28;;;13.64;63.84
42289;BME280;30230;47.520;19.016;2023-05-02T05:51:39;99220.03;;;13.75;62.96
42289;BME280;30230;47.520;19.016;2023-05-02T05:53:40;99223.03;;;13.85;59.57
42289;BME280;30230;47.520;19.016;2023-05-02T05:55:40;99226.66;;;13.97;58.54
42289;BME280;30230;47.520;19.016;2023-05-02T05:57:41;99224.69;;;14.04;60.15
42289;BME280;30230;47.520;19.016;2023-05-02T05:59:41;99225.47;;;14.12;62.09
42289;BME280;30230;47.520;19.016;2023-05-02T06:01:42;99222.66;;;14.18;60.81
42289;BME280;30230;47.520;19.016;2023-05-02T06:03:42;99232.84;;;14.23;61.57
42289;BME280;30230;47.520;19.016;2023-05-02T06:05:42;99228.00;;;14.25;61.28
42289;BME280;30230;47.520;19.016;2023-05-02T06:07:43;99230.19;;;14.53;69.60
42289;BME280;30230;47.520;19.016;2023-05-02T06:09:43;99231.22;;;14.52;64.39
42289;BME280;30230;47.520;19.016;2023-05-02T06:11:44;99228.03;;;14.55;63.22
42289;BME280;30230;47.520;19.016;2023-05-02T06:13:44;99228.63;;;14.57;63.43
42289;BME280;30230;47.520;19.016;2023-05-02T06:15:44;99230.13;;;14.83;70.21
42289;BME280;30230;47.520;19.016;2023-05-02T06:17:45;99221.53;;;14.86;64.28
42289;BME280;30230;47.520;19.016;2023-05-02T06:19:45;99236.19;;;14.85;59.03
42289;BME280;30230;47.520;19.016;2023-05-02T06:21:46;99232.16;;;14.88;59.43
42289;BME280;30230;47.520;19.016;2023-05-02T06:23:46;99239.19;;;14.95;59.14
42289;BME280;30230;47.520;19.016;2023-05-02T06:25:46;99233.63;;;15.02;58.19
42289;BME280;30230;47.520;19.016;2023-05-02T06:27:47;99236.34;;;15.02;58.58
42289;BME280;30230;47.520;19.016;2023-05-02T06:29:50;99235.06;;;15.04;57.42
42289;BME280;30230;47.520;19.016;2023-05-02T06:31:54;99230.72;;;15.15;57.39
42289;BME280;30230;47.520;19.016;2023-05-02T06:33:54;99241.03;;;15.25;57.27
42289;BME280;30230;47.520;19.016;2023-05-02T06:35:55;99241.03;;;15.36;54.74
42289;BME280;30230;47.520;19.016;2023-05-02T06:37:55;99233.81;;;15.30;54.76
42289;BME280;30230;47.520;19.016;2023-05-02T06:39:56;99232.50;;;15.33;57.26
42289;BME280;30230;47.520;19.016;2023-05-02T06:41:59;99232.13;;;15.29;56.66
42289;BME280;30230;47.520;19.016;2023-05-02T06:43:59;99232.13;;;15.29;56.53
42289;BME280;30230;47.520;19.016;2023-05-02T06:46:00;99234.06;;;15.41;56.04
42289;BME280;30230;47.520;19.016;2023-05-02T06:48:00;99234.16;;;15.57;54.53
42289;BME280;30230;47.520;19.016;2023-05-02T06:50:01;99232.16;;;15.76;54.51
42289;BME280;30230;47.520;19.016;2023-05-02T06:52:01;99236.44;;;15.84;55.73
42289;BME280;30230;47.520;19.016;2023-05-02T06:54:01;99245.28;;;15.91;56.53
42289;BME280;30230;47.520;19.016;2023-05-02T06:56:02;99241.13;;;16.00;55.21
42289;BME280;30230;47.520;19.016;2023-05-02T06:58:02;99233.66;;;16.07;51.38
42289;BME280;30230;47.520;19.016;2023-05-02T07:00:03;99239.31;;;16.18;51.81
42289;BME280;30230;47.520;19.016;2023-05-02T07:02:04;99242.84;;;16.30;52.26
42289;BME280;30230;47.520;19.016;2023-05-02T07:04:04;99234.47;;;16.48;53.75
42289;BME280;30230;47.520;19.016;2023-05-02T07:06:05;99237.50;;;16.63;52.31
42289;BME280;30230;47.520;19.016;2023-05-02T07:08:06;99239.41;;;16.75;50.71
42289;BME280;30230;47.520;19.016;2023-05-02T07:10:07;99239.91;;;16.88;50.54
42289;BME280;30230;47.520;19.016;2023-05-02T07:12:07;99243.00;;;17.09;51.81
42289;BME280;30230;47.520;19.016;2023-05-02T07:14:07;99241.63;;;17.23;53.22
42289;BME280;30230;47.520;19.016;2023-05-02T07:16:08;99242.09;;;17.20;52.23
42289;BME280;30230;47.520;19.016;2023-05-02T07:18:08;99234.91;;;17.31;51.96
42289;BME280;30230;47.520;19.016;2023-05-02T07:20:09;99226.66;;;17.42;51.08
42289;BME280;30230;47.520;19.016;2023-05-02T07:22:10;99224.00;;;17.48;53.17
42289;BME280;30230;47.520;19.016;2023-05-02T07:24:11;99224.88;;;17.36;49.90
42289;BME280;30230;47.520;19.016;2023-05-02T07:26:11;99228.69;;;17.35;49.85
42289;BME280;30230;47.520;19.016;2023-05-02T07:28:12;99230.03;;;17.33;52.56
42289;BME280;30230;47.520;19.016;2023-05-02T07:30:12;99222.47;;;17.57;54.79
42289;BME280;30230;47.520;19.016;2023-05-02T07:32:12;99228.34;;;17.82;52.11
42289;BME280;30230;47.520;19.016;2023-05-02T07:34:13;99231.38;;;18.25;54.00
42289;BME280;30230;47.520;19.016;2023-05-02T07:36:13;99230.16;;;18.37;47.07
42289;BME280;30230;47.520;19.016;2023-05-02T07:38:14;99228.47;;;18.58;49.95
42289;BME280;30230;47.520;19.016;2023-05-02T07:40:14;99228.06;;;18.93;46.34
42289;BME280;30230;47.520;19.016;2023-05-02T07:42:15;99238.28;;;19.03;45.49
42289;BME280;30230;47.520;19.016;2023-05-02T07:44:15;99232.94;;;19.18;44.72
42289;BME280;30230;47.520;19.016;2023-05-02T07:46:17;99233.19;;;19.17;44.75
42289;BME280;30230;47.520;19.016;2023-05-02T07:48:17;99228.63;;;19.27;44.66
42289;BME280;30230;47.520;19.016;2023-05-02T07:50:18;99234.72;;;19.35;46.75
42289;BME280;30230;47.520;19.016;2023-05-02T07:52:19;99235.69;;;19.56;47.60
42289;BME280;30230;47.520;19.016;2023-05-02T07:54:21;99233.34;;;19.64;45.32
42289;BME280;30230;47.520;19.016;2023-05-02T07:56:21;99248.38;;;19.62;45.07
42289;BME280;30230;47.520;19.016;2023-05-02T07:58:21;99235.69;;;19.56;43.30
42289;BME280;30230;47.520;19.016;2023-05-02T08:00:22;99216.25;;;19.57;44.83
42289;BME280;30230;47.520;19.016;2023-05-02T08:02:22;99235.84;;;19.71;43.57
42289;BME280;30230;47.520;19.016;2023-05-02T08:04:23;99243.00;;;19.77;42.80
42289;BME280;30230;47.520;19.016;2023-05-02T08:06:23;99238.97;;;19.95;45.23
42289;BME280;30230;47.520;19.016;2023-05-02T08:08:24;99228.38;;;20.09;45.85
42289;BME280;30230;47.520;19.016;2023-05-02T08:10:24;99239.91;;;20.11;45.86
42289;BME280;30230;47.520;19.016;2023-05-02T08:12:25;99217.41;;;20.09;43.01
42289;BME280;30230;47.520;19.016;2023-05-02T08:14:25;99231.69;;;20.21;44.71
42289;BME280;30230;47.520;19.016;2023-05-02T08:16:26;99237.00;;;20.33;43.91
42289;BME280;30230;47.520;19.016;2023-05-02T08:18:26;99238.31;;;20.25;44.88
42289;BME280;30230;47.520;19.016;2023-05-02T08:20:27;99246.72;;;20.61;44.15
42289;BME280;30230;47.520;19.016;2023-05-02T08:22:27;99246.44;;;20.62;45.64
42289;BME280;30230;47.520;19.016;2023-05-02T08:24:27;99244.28;;;20.69;42.45
42289;BME280;30230;47.520;19.016;2023-05-02T08:26:29;99247.81;;;20.65;44.79
42289;BME280;30230;47.520;19.016;2023-05-02T08:28:29;99253.13;;;20.24;43.03
42289;BME280;30230;47.520;19.016;2023-05-02T08:30:30;99252.94;;;19.88;44.48
42289;BME280;30230;47.520;19.016;2023-05-02T08:32:31;99255.13;;;19.86;45.91
42289;BME280;30230;47.520;19.016;2023-05-02T08:34:32;99253.44;;;19.80;48.20
42289;BME280;30230;47.520;19.016;2023-05-02T08:36:33;99256.44;;;19.78;48.88
42289;BME280;30230;47.520;19.016;2023-05-02T08:38:33;99254.13;;;19.60;46.98
42289;BME280;30230;47.520;19.016;2023-05-02T08:40:35;99246.59;;;19.45;44.15
42289;BME280;30230;47.520;19.016;2023-05-02T08:42:36;99243.72;;;19.62;43.08
42289;BME280;30230;47.520;19.016;2023-05-02T08:44:40;99238.66;;;19.81;47.60
42289;BME280;30230;47.520;19.016;2023-05-02T08:46:41;99231.56;;;19.90;44.32
42289;BME280;30230;47.520;19.016;2023-05-02T08:48:44;99230.03;;;20.15;48.26
42289;BME280;30230;47.520;19.016;2023-05-02T08:50:44;99234.28;;;20.43;47.05
42289;BME280;30230;47.520;19.016;2023-05-02T08:52:48;99230.25;;;20.61;43.75
42289;BME280;30230;47.520;19.016;2023-05-02T08:54:50;99227.84;;;20.79;42.05
42289;BME280;30230;47.520;19.016;2023-05-02T08:56:53;99233.63;;;21.14;42.03
42289;BME280;30230;47.520;19.016;2023-05-02T08:58:53;99238.59;;;21.17;43.22
42289;BME280;30230;47.520;19.016;2023-05-02T09:00:54;99228.75;;;21.31;43.46
42289;BME280;30230;47.520;19.016;2023-05-02T09:05:19;99229.00;;;21.45;43.47
42289;BME280;30230;47.520;19.016;2023-05-02T09:07:20;99233.94;;;21.53;41.43
42289;BME280;30230;47.520;19.016;2023-05-02T09:09:21;99228.72;;;21.62;40.32
42289;BME280;30230;47.520;19.016;2023-05-02T09:11:21;99221.25;;;21.88;41.62
42289;BME280;30230;47.520;19.016;2023-05-02T09:13:45;99225.94;;;21.87;41.29
42289;BME280;30230;47.520;19.016;2023-05-02T09:15:56;99228.13;;;21.85;42.90
42289;BME280;30230;47.520;19.016;2023-05-02T09:17:57;99212.22;;;21.67;40.33
42289;BME280;30230;47.520;19.016;2023-05-02T09:20:00;99208.66;;;21.61;39.79
42289;BME280;30230;47.520;19.016;2023-05-02T09:22:01;99219.38;;;21.47;40.05
42289;BME280;30230;47.520;19.016;2023-05-02T09:24:02;99215.47;;;21.89;40.54
42289;BME280;30230;47.520;19.016;2023-05-02T09:26:15;99217.09;;;21.95;40.67
42289;BME280;30230;47.520;19.016;2023-05-02T09:28:16;99219.25;;;22.08;38.60
42289;BME280;30230;47.520;19.016;2023-05-02T09:30:24;99219.16;;;22.39;39.38
42289;BME280;30230;47.520;19.016;2023-05-02T09:32:43;99218.44;;;22.68;37.32
42289;BME280;30230;47.520;19.016;2023-05-02T09:35:03;99230.22;;;22.78;37.84
42289;BME280;30230;47.520;19.016;2023-05-02T09:37:05;99212.84;;;22.83;38.14
42289;BME280;30230;47.520;19.016;2023-05-02T09:39:10;99222.91;;;23.08;37.65
42289;BME280;30230;47.520;19.016;2023-05-02T09:41:12;99217.03;;;23.20;38.16
42289;BME280;30230;47.520;19.016;2023-05-02T09:43:13;99216.78;;;23.16;38.37
42289;BME280;30230;47.520;19.016;2023-05-02T09:45:23;99217.94;;;23.44;39.14
42289;BME280;30230;47.520;19.016;2023-05-02T09:47:24;99218.78;;;23.39;37.70
42289;BME280;30230;47.520;19.016;2023-05-02T09:49:44;99216.69;;;23.31;37.08
42289;BME280;30230;47.520;19.016;2023-05-02T09:51:46;99215.06;;;23.54;36.08
42289;BME280;30230;47.520;19.016;2023-05-02T09:53:47;99216.19;;;23.53;36.60
42289;BME280;30230;47.520;19.016;2023-05-02T09:55:47;99206.69;;;23.70;35.02
42289;BME280;30230;47.520;19.016;2023-05-02T09:57:48;99212.28;;;23.59;34.68
42289;BME280;30230;47.520;19.016;2023-05-02T09:59:54;99201.31;;;23.83;37.06
42289;BME280;30230;47.520;19.016;2023-05-02T10:01:56;99208.88;;;23.73;36.69
42289;BME280;30230;47.520;19.016;2023-05-02T10:03:57;99207.00;;;23.92;36.15
42289;BME280;30230;47.520;19.016;2023-05-02T10:05:57;99194.25;;;23.96;36.94
42289;BME280;30230;47.520;19.016;2023-05-02T10:07:58;99199.97;;;24.05;34.46
42289;BME280;30230;47.520;19.016;2023-05-02T10:10:00;99209.09;;;24.24;33.84
42289;BME280;30230;47.520;19.016;2023-05-02T10:12:02;99201.66;;;24.25;35.28
42289;BME280;30230;47.520;19.016;2023-05-02T10:14:11;99196.13;;;24.25;34.82
42289;BME280;30230;47.520;19.016;2023-05-02T10:16:12;99201.63;;;23.77;35.38
42289;BME280;30230;47.520;19.016;2023-05-02T10:18:25;99206.16;;;23.68;34.56
42289;BME280;30230;47.520;19.016;2023-05-02T10:20:31;99203.41;;;23.91;32.84
42289;BME280;30230;47.520;19.016;2023-05-02T10:22:34;99199.78;;;23.96;33.38
42289;BME280;30230;47.520;19.016;2023-05-02T10:24:37;99196.25;;;24.14;33.18
42289;BME280;30230;47.520;19.016;2023-05-02T10:26:37;99205.63;;;24.13;35.16
42289;BME280;30230;47.520;19.016;2023-05-02T10:28:40;99200.13;;;24.37;32.86
42289;BME280;30230;47.520;19.016;2023-05-02T10:30:41;99196.72;;;24.46;32.74
42289;BME280;30230;47.520;19.016;2023-05-02T10:32:43;99191.03;;;24.37;32.19
42289;BME280;30230;47.520;19.016;2023-05-02T10:34:45;99184.25;;;24.48;32.51
42289;BME280;30230;47.520;19.016;2023-05-02T10:36:46;99196.72;;;24.64;34.13
42289;BME280;30230;47.520;19.016;2023-05-02T10:38:47;99193.81;;;24.75;32.45
42289;BME280;30230;47.520;19.016;2023-05-02T10:40:58;99200.63;;;24.82;33.10
42289;BME280;30230;47.520;19.016;2023-05-02T10:43:00;99198.59;;;24.88;33.02
42289;BME280;30230;47.520;19.016;2023-05-02T10:45:02;99204.16;;;25.02;34.39
42289;BME280;30230;47.520;19.016;2023-05-02T10:47:26;99202.63;;;25.14;34.12
42289;BME280;30230;47.520;19.016;2023-05-02T10:49:27;99209.06;;;25.42;34.28
42289;BME280;30230;47.520;19.016;2023-05-02T10:51:29;99194.28;;;25.66;32.66
42289;BME280;30230;47.520;19.016;2023-05-02T10:53:32;99196.22;;;25.65;34.35